Time;durP1;ratioP1;P1;durP2;ratioP2;P2;SDS_P1;SDS_P2;PMS_P1;PMS_P2;Temp;Humidity;BMP_temperature;BMP_pressure;BME280_temperature;BME280_humidity;BME280_pressure;Samples;Min_cycle;Max_cycle;Signal;HPM_P1;HPM_P2
2023/05/02 00:00:14;;;;;;;6.30;2.30;;;10.40;99.90;;;;;;5075250;28;20047;-42
2023/05/02 00:02:40;;;;;;;5.30;1.90;;;10.30;99.90;;;;;;5075061;28;20051;-42
2023/05/02 00:05:06;;;;;;;4.30;2.00;;;10.30;99.90;;;;;;5074943;28;20056;-42
2023/05/02 00:07:32;;;;;;;4.93;1.70;;;10.30;99.90;;;;;;5074908;28;20110;-42
2023/05/02 00:10:01;;;;;;;5.97;1.60;;;10.30;99.90;;;;;;5074794;28;20564;-42
2023/05/02 00:12:26;;;;;;;6.07;2.25;;;10.30;99.90;;;;;;5073903;28;20084;-42
2023/05/02 00:14:52;;;;;;;4.30;1.77;;;10.30;99.90;;;;;;5073784;28;20095;-42
2023/05/02 00:17:18;;;;;;;5.37;1.83;;;10.30;99.90;;;;;;5073644;28;20819;-41
2023/05/02 00:19:44;;;;;;;4.50;1.75;;;10.30;99.90;;;;;;5074705;28;20067;-42
2023/05/02 00:22:10;;;;;;;5.07;1.70;;;10.30;99.90;;;;;;5039995;28;20056;-41
2023/05/02 00:24:36;;;;;;;5.07;2.37;;;10.30;99.90;;;;;;5073346;28;20491;-42
2023/05/02 00:27:01;;;;;;;5.80;2.13;;;10.30;99.90;;;;;;5073734;28;20444;-41
2023/05/02 00:29:27;;;;;;;4.07;1.60;;;10.30;99.90;;;;;;5073527;28;20141;-42
2023/05/02 00:31:52;;;;;;;4.23;1.60;;;10.30;99.90;;;;;;5074427;28;20047;-42
2023/05/02 00:34:18;;;;;;;5.73;2.50;;;10.30;99.90;;;;;;5056763;28;20040;-42
2023/05/02 00:36:44;;;;;;;6.30;1.80;;;10.30;99.90;;;;;;5074428;28;20056;-42
2023/05/02 00:39:10;;;;;;;5.97;1.93;;;10.30;99.90;;;;;;5074412;28;20059;-42
2023/05/02 00:41:35;;;;;;;6.97;1.90;;;10.30;99.90;;;;;;5057092;28;20056;-41
2023/05/02 00:44:01;;;;;;;6.30;1.67;;;10.30;99.90;;;;;;5074059;28;20478;-42
2023/05/02 00:46:27;;;;;;;7.10;1.80;;;10.30;99.90;;;;;;5073272;28;20044;-41
2023/05/02 00:48:53;;;;;;;4.07;1.83;;;10.20;99.90;;;;;;5073263;28;20075;-41
2023/05/02 00:51:19;;;;;;;4.10;1.40;;;10.20;99.90;;;;;;5056374;28;20057;-42
2023/05/02 00:53:45;;;;;;;5.00;1.30;;;10.20;99.90;;;;;;5056864;28;20082;-42
2023/05/02 00:56:10;;;;;;;5.67;1.53;;;10.30;99.90;;;;;;5074070;28;20638;-41
2023/05/02 01:09:37;;;;;;;;;;;10.20;99.90;;;;;;5074447;28;20490;-42
2023/05/02 01:12:14;;;;;;;6.97;1.42;;;10.20;99.90;;;;;;5072815;28;19981;-41
2023/05/02 01:14:49;;;;;;;3.33;1.40;;;10.20;99.90;;;;;;5072835;28;20102;-42
2023/05/02 01:17:18;;;;;;;3.50;1.23;;;10.10;99.90;;;;;;5072719;28;20495;-41
2023/05/02 01:19:50;;;;;;;4.63;1.10;;;10.10;99.90;;;;;;5073581;28;20491;-41
2023/05/02 01:22:18;;;;;;;4.00;1.35;;;10.10;99.90;;;;;;5074096;28;20048;-42
2023/05/02 01:25:14;;;;;;;7.88;1.65;;;10.00;99.90;;;;;;5073657;28;20094;-41
2023/05/02 01:27:55;;;;;;;9.40;1.70;;;10.00;99.90;;;;;;5072641;28;20110;-41
2023/05/02 01:30:23;;;;;;;4.28;1.20;;;9.80;99.90;;;;;;5073000;28;20040;-42
2023/05/02 01:32:51;;;;;;;6.07;1.85;;;9.70;99.90;;;;;;5072692;28;20055;-42
2023/05/02 01:35:18;;;;;;;3.25;1.15;;;9.60;99.90;;;;;;5072217;28;20118;-41
2023/05/02 01:37:47;;;;;;;5.18;1.20;;;9.50;99.90;;;;;;5073460;28;20052;-42
2023/05/02 01:40:16;;;;;;;6.15;1.35;;;9.40;99.90;;;;;;5073553;28;20053;-41
2023/05/02 01:42:44;;;;;;;4.82;1.15;;;9.30;99.90;;;;;;5073237;28;20442;-41
2023/05/02 01:45:12;;;;;;;6.47;1.10;;;9.20;99.90;;;;;;5039155;28;20037;-42
2023/05/02 01:47:39;;;;;;;3.63;1.10;;;9.20;99.90;;;;;;5073410;28;20040;-41
2023/05/02 01:50:10;;;;;;;4.22;0.90;;;9.20;99.90;;;;;;5073671;28;20399;-42
2023/05/02 01:52:37;;;;;;;7.70;1.30;;;9.10;99.90;;;;;;5073627;28;20048;-41
2023/05/02 01:55:04;;;;;;;7.45;1.50;;;9.10;99.90;;;;;;5072836;28;20480;-42
2023/05/02 01:57:31;;;;;;;6.65;1.60;;;9.10;99.90;;;;;;5072266;28;20102;-41
2023/05/02 01:59:58;;;;;;;5.70;1.70;;;9.10;99.90;;;;;;5073554;28;20094;-41
2023/05/02 02:02:26;;;;;;;4.20;1.40;;;9.10;99.90;;;;;;5072412;28;20090;-41
2023/05/02 02:04:55;;;;;;;9.55;1.98;;;9.10;99.90;;;;;;5072409;28;20053;-42
2023/05/02 02:07:20;;;;;;;7.97;1.70;;;9.10;99.90;;;;;;5072272;28;20484;-42
2023/05/02 02:09:46;;;;;;;9.45;2.78;;;9.00;99.90;;;;;;5073173;28;20127;-42
2023/05/02 02:12:22;;;;;;;7.97;1.60;;;9.00;99.90;;;;;;5072585;28;20541;-42
2023/05/02 02:14:55;;;;;;;6.07;1.98;;;9.00;99.90;;;;;;5072639;28;20398;-42
2023/05/02 02:17:28;;;;;;;5.95;1.88;;;8.90;99.90;;;;;;5055464;28;20083;-45
2023/05/02 02:19:56;;;;;;;5.65;2.17;;;8.90;99.90;;;;;;5089092;28;20070;-43
2023/05/02 02:22:25;;;;;;;6.18;1.70;;;8.90;99.90;;;;;;5071881;28;20483;-41
2023/05/02 02:24:52;;;;;;;7.20;1.77;;;8.80;99.90;;;;;;5072974;28;20483;-42
2023/05/02 02:27:18;;;;;;;11.13;2.55;;;8.80;99.90;;;;;;5055636;28;20447;-43
2023/05/02 02:29:44;;;;;;;6.15;1.40;;;8.70;99.90;;;;;;5072159;28;20131;-41
2023/05/02 02:32:10;;;;;;;7.63;1.83;;;8.70;99.90;;;;;;5071897;28;20124;-42
2023/05/02 02:34:36;;;;;;;6.73;1.50;;;8.70;99.90;;;;;;5073107;28;20048;-42
2023/05/02 02:37:17;;;;;;;7.27;1.83;;;8.70;99.90;;;;;;5071861;28;20041;-42
2023/05/02 02:39:50;;;;;;;6.70;1.73;;;8.60;99.90;;;;;;5073163;28;20124;-42
2023/05/02 02:42:44;;;;;;;5.85;1.50;;;8.60;99.90;;;;;;5073144;28;20052;-42
2023/05/02 02:45:44;;;;;;;6.57;2.28;;;8.50;99.90;;;;;;5071681;28;20070;-42
2023/05/02 02:48:33;;;;;;;8.20;1.98;;;8.50;99.90;;;;;;5075578;28;20059;-41
2023/05/02 02:51:08;;;;;;;4.32;1.60;;;8.50;99.90;;;;;;5076640;28;20117;-42
2023/05/02 02:53:59;;;;;;;5.32;1.35;;;8.40;99.90;;;;;;5075489;28;20041;-41
2023/05/02 02:56:38;;;;;;;4.63;1.40;;;8.40;99.90;;;;;;5075235;28;20056;-41
2023/05/02 02:59:19;;;;;;;6.85;1.77;;;8.40;99.90;;;;;;5075432;28;20514;-43
2023/05/02 03:01:52;;;;;;;7.65;1.73;;;8.40;99.90;;;;;;5075318;28;20084;-42
2023/05/02 03:04:19;;;;;;;6.20;1.42;;;8.40;99.90;;;;;;5058591;28;20052;-42
2023/05/02 03:06:45;;;;;;;7.78;1.27;;;8.30;99.90;;;;;;5075007;28;20514;-41
2023/05/02 03:09:17;;;;;;;7.63;1.53;;;8.30;99.90;;;;;;5076065;28;20041;-43
2023/05/02 03:11:44;;;;;;;5.03;1.30;;;8.20;99.90;;;;;;5076081;28;20139;-42
2023/05/02 03:14:11;;;;;;;2.67;1.08;;;8.20;99.90;;;;;;5076029;28;20048;-42
2023/05/02 03:16:40;;;;;;;6.75;1.15;;;8.10;99.90;;;;;;5074678;28;20380;-41
2023/05/02 03:19:07;;;;;;;5.82;1.73;;;8.10;99.90;;;;;;5075958;28;20056;-41
2023/05/02 03:21:34;;;;;;;2.67;1.00;;;8.10;99.90;;;;;;5074751;28;20053;-42
2023/05/02 03:24:01;;;;;;;7.60;1.88;;;8.10;99.90;;;;;;5075830;28;20045;-42
2023/05/02 03:26:27;;;;;;;2.65;0.95;;;8.10;99.90;;;;;;5074637;28;20531;-42
2023/05/02 03:28:54;;;;;;;4.40;1.35;;;8.10;99.90;;;;;;5074340;28;20127;-41
2023/05/02 03:31:20;;;;;;;3.83;0.80;;;8.10;99.90;;;;;;5075052;28;20088;-42
2023/05/02 03:33:46;;;;;;;5.40;1.00;;;8.00;99.90;;;;;;5074643;28;20475;-42
2023/05/02 03:36:12;;;;;;;3.20;0.90;;;8.00;99.90;;;;;;5075004;28;20340;-41
2023/05/02 03:38:38;;;;;;;5.23;0.97;;;8.00;99.90;;;;;;5075782;28;20479;-42
2023/05/02 03:41:04;;;;;;;3.13;0.80;;;8.00;99.90;;;;;;5075395;28;20053;-41
2023/05/02 03:43:30;;;;;;;2.75;0.70;;;8.00;99.90;;;;;;5075460;28;20071;-42
2023/05/02 03:45:56;;;;;;;3.73;1.13;;;7.90;99.90;;;;;;5075385;28;20044;-41
2023/05/02 03:48:22;;;;;;;4.20;1.20;;;7.90;99.90;;;;;;5075482;28;20045;-42
2023/05/02 03:50:48;;;;;;;4.47;0.87;;;7.90;99.90;;;;;;5075350;28;20047;-42
2023/05/02 03:53:15;;;;;;;1.13;0.45;;;7.90;99.90;;;;;;5075339;28;20059;-41
2023/05/02 03:55:42;;;;;;;2.30;0.75;;;7.80;99.90;;;;;;5075002;28;20055;-42
2023/05/02 03:58:09;;;;;;;1.50;0.57;;;7.80;99.90;;;;;;5073591;28;20095;-41
2023/05/02 04:00:35;;;;;;;2.92;0.82;;;7.80;99.90;;;;;;5075238;28;20052;-41
2023/05/02 04:03:01;;;;;;;5.63;0.70;;;7.80;99.90;;;;;;5075189;28;20495;-42
2023/05/02 04:05:27;;;;;;;2.60;0.70;;;7.80;99.90;;;;;;5074906;28;20040;-41
2023/05/02 04:07:54;;;;;;;2.25;0.80;;;7.80;99.90;;;;;;5074051;28;20101;-42
2023/05/02 04:10:19;;;;;;;3.78;0.98;;;7.70;99.90;;;;;;5074978;28;20062;-41
2023/05/02 04:12:45;;;;;;;4.00;0.60;;;7.70;99.90;;;;;;5074831;28;20135;-42
2023/05/02 04:15:11;;;;;;;4.77;0.70;;;7.70;99.90;;;;;;5073781;28;20484;-42
2023/05/02 04:17:37;;;;;;;3.77;0.70;;;7.70;99.90;;;;;;5074889;28;20051;-41
2023/05/02 04:20:04;;;;;;;3.80;0.60;;;7.70;99.90;;;;;;5074717;28;20051;-41
2023/05/02 04:22:30;;;;;;;2.92;0.88;;;7.70;99.90;;;;;;5074649;28;20052;-41
2023/05/02 04:24:56;;;;;;;1.45;0.50;;;7.70;99.90;;;;;;5073455;28;20503;-41
2023/05/02 04:27:22;;;;;;;2.00;0.77;;;7.70;99.90;;;;;;5074635;28;20059;-42
2023/05/02 04:29:48;;;;;;;2.93;0.93;;;7.60;99.90;;;;;;5074387;28;20044;-41
2023/05/02 04:32:14;;;;;;;3.95;0.70;;;7.60;99.90;;;;;;5073401;28;20051;-41
2023/05/02 04:34:40;;;;;;;2.63;0.90;;;7.70;99.90;;;;;;5074630;28;20402;-41
2023/05/02 04:37:06;;;;;;;4.33;1.13;;;7.60;99.90;;;;;;5074404;28;20059;-41
2023/05/02 04:39:32;;;;;;;4.53;1.30;;;7.60;99.90;;;;;;5073201;28;20044;-41
2023/05/02 04:41:58;;;;;;;5.25;0.75;;;7.60;99.90;;;;;;5074265;28;20048;-41
2023/05/02 04:44:24;;;;;;;3.97;1.00;;;7.60;99.90;;;;;;5074268;28;20325;-41
2023/05/02 04:46:50;;;;;;;4.27;1.30;;;7.70;99.90;;;;;;5073257;28;20053;-41
2023/05/02 04:49:16;;;;;;;2.37;0.80;;;7.60;99.90;;;;;;5074254;28;20341;-41
2023/05/02 04:51:41;;;;;;;4.60;0.93;;;7.60;99.90;;;;;;5073469;28;20391;-41
2023/05/02 04:54:07;;;;;;;2.77;1.00;;;7.60;99.90;;;;;;5074408;28;20041;-41
2023/05/02 04:56:33;;;;;;;4.20;0.90;;;7.60;99.90;;;;;;5071754;28;20574;-41
2023/05/02 04:58:58;;;;;;;6.40;1.00;;;7.60;99.90;;;;;;5073625;28;20469;-41
2023/05/02 05:01:26;;;;;;;3.60;1.67;;;7.60;99.90;;;;;;5054217;28;20055;-41
2023/05/02 05:03:53;;;;;;;3.65;1.05;;;7.60;99.90;;;;;;5053968;28;20048;-41
2023/05/02 05:06:19;;;;;;;6.50;1.77;;;7.60;99.90;;;;;;5052813;28;20545;-41
2023/05/02 05:08:45;;;;;;;4.17;1.10;;;7.60;99.90;;;;;;5052400;28;20045;-42
2023/05/02 05:11:11;;;;;;;3.38;1.25;;;7.60;99.90;;;;;;5052901;28;20048;-41
2023/05/02 05:13:37;;;;;;;5.28;1.08;;;7.60;99.90;;;;;;5052951;28;20400;-41
2023/05/02 05:16:03;;;;;;;4.43;1.10;;;7.60;99.90;;;;;;5053922;28;20052;-42
2023/05/02 05:18:29;;;;;;;3.17;1.10;;;7.60;99.90;;;;;;5053815;28;20049;-41
2023/05/02 05:20:55;;;;;;;8.40;1.67;;;7.60;99.90;;;;;;5052686;28;20040;-41
2023/05/02 05:23:21;;;;;;;9.00;1.53;;;7.60;99.90;;;;;;5053830;28;20041;-41
2023/05/02 05:25:47;;;;;;;4.43;1.40;;;7.60;99.90;;;;;;5052343;28;20458;-42
2023/05/02 05:28:12;;;;;;;8.30;1.20;;;7.60;99.90;;;;;;5053668;28;20045;-41
2023/05/02 05:30:38;;;;;;;2.33;0.80;;;7.60;99.90;;;;;;5053710;28;20040;-41
2023/05/02 05:33:04;;;;;;;5.47;1.30;;;7.60;99.90;;;;;;5053598;28;20080;-41
2023/05/02 05:35:31;;;;;;;5.77;1.27;;;7.60;99.90;;;;;;5052665;28;20106;-42
2023/05/02 05:37:57;;;;;;;5.57;1.33;;;7.60;99.90;;;;;;5036018;28;20400;-42
2023/05/02 05:40:23;;;;;;;6.13;1.30;;;7.60;99.90;;;;;;5052283;28;20057;-42
2023/05/02 05:42:48;;;;;;;4.13;1.13;;;7.60;99.90;;;;;;5052028;28;20056;-41
2023/05/02 05:45:16;;;;;;;5.17;1.50;;;7.60;99.90;;;;;;5053516;28;20045;-42
2023/05/02 05:47:42;;;;;;;3.95;1.00;;;7.60;99.90;;;;;;5052647;28;20045;-42
2023/05/02 05:50:08;;;;;;;3.72;1.40;;;7.60;99.90;;;;;;5052271;28;20103;-42
2023/05/02 05:52:33;;;;;;;3.75;1.40;;;7.60;99.90;;;;;;5052364;28;20048;-41
2023/05/02 05:54:59;;;;;;;5.33;1.20;;;7.60;99.90;;;;;;5053337;28;20048;-41
2023/05/02 05:57:25;;;;;;;3.47;1.20;;;7.60;99.90;;;;;;5053196;28;20110;-41
2023/05/02 05:59:51;;;;;;;4.57;1.08;;;7.50;99.90;;;;;;5053252;28;20057;-41
2023/05/02 06:02:18;;;;;;;5.43;1.43;;;7.50;99.90;;;;;;5051947;28;20048;-41
2023/05/02 06:04:45;;;;;;;5.68;1.00;;;7.50;99.90;;;;;;5053076;28;20541;-41
2023/05/02 06:07:11;;;;;;;5.20;1.10;;;7.60;99.90;;;;;;5053383;28;20045;-42
2023/05/02 06:09:36;;;;;;;2.23;0.90;;;7.60;99.90;;;;;;5051957;28;20056;-41
2023/05/02 06:12:02;;;;;;;6.13;1.50;;;7.70;99.90;;;;;;5052483;28;20052;-41
2023/05/02 06:14:28;;;;;;;4.17;1.03;;;7.70;99.90;;;;;;5053220;28;20045;-41
2023/05/02 06:16:53;;;;;;;5.83;1.17;;;7.70;99.90;;;;;;5053213;28;20127;-41
2023/05/02 06:19:19;;;;;;;4.83;1.07;;;7.70;99.90;;;;;;5053134;28;20119;-41
2023/05/02 06:21:45;;;;;;;5.03;1.03;;;7.70;99.90;;;;;;5056418;28;20052;-41
2023/05/02 06:24:10;;;;;;;4.00;1.17;;;7.70;99.90;;;;;;5055835;28;20469;-41
2023/05/02 06:26:36;;;;;;;7.50;1.33;;;7.70;99.90;;;;;;5055809;28;20500;-41
2023/05/02 06:29:02;;;;;;;4.83;1.10;;;7.70;99.90;;;;;;5056791;28;20045;-41
2023/05/02 06:31:28;;;;;;;5.25;1.27;;;7.70;99.90;;;;;;5055994;28;20084;-42
2023/05/02 06:33:53;;;;;;;3.40;1.13;;;7.70;99.90;;;;;;5022631;28;20095;-42
2023/05/02 06:36:19;;;;;;;6.93;1.20;;;7.70;99.90;;;;;;5055696;28;20053;-41
2023/05/02 06:38:45;;;;;;;6.67;0.97;;;7.80;99.90;;;;;;5055625;28;20049;-41
2023/05/02 06:41:14;;;;;;;2.67;1.10;;;7.80;99.90;;;;;;5056707;28;20473;-41
2023/05/02 06:43:40;;;;;;;2.65;0.90;;;7.80;99.90;;;;;;5055682;28;20053;-41
2023/05/02 06:46:07;;;;;;;3.53;0.98;;;7.80;99.90;;;;;;5056852;28;20053;-41
2023/05/02 06:48:34;;;;;;;3.83;0.80;;;7.90;99.90;;;;;;5055650;28;20135;-41
2023/05/02 06:51:00;;;;;;;3.55;1.10;;;7.90;99.90;;;;;;5038888;28;20053;-41
2023/05/02 06:53:25;;;;;;;3.83;1.10;;;8.00;99.90;;;;;;5056307;28;20040;-42
2023/05/02 06:55:52;;;;;;;3.10;0.97;;;8.00;99.90;;;;;;5038885;28;20037;-41
2023/05/02 06:58:17;;;;;;;4.03;1.10;;;8.00;99.90;;;;;;5038766;28;20052;-41
2023/05/02 07:00:43;;;;;;;3.70;1.60;;;8.00;99.90;;;;;;5021872;28;20057;-42
2023/05/02 07:03:10;;;;;;;3.70;1.07;;;8.00;99.90;;;;;;5055089;28;20060;-42
2023/05/02 07:05:35;;;;;;;6.40;1.70;;;8.10;99.90;;;;;;5038410;28;20416;-41
2023/05/02 07:08:01;;;;;;;3.07;1.33;;;8.10;99.90;;;;;;5055025;28;20048;-41
2023/05/02 07:10:27;;;;;;;4.37;0.97;;;8.10;99.90;;;;;;5055007;28;20041;-41
2023/05/02 07:12:52;;;;;;;4.33;0.90;;;8.20;99.90;;;;;;5055197;28;20045;-41
2023/05/02 07:15:18;;;;;;;7.13;1.13;;;8.20;99.90;;;;;;5056096;28;20083;-42
2023/05/02 07:17:46;;;;;;;4.57;1.13;;;8.20;99.90;;;;;;5056123;28;20473;-41
2023/05/02 07:20:12;;;;;;;2.33;0.90;;;8.20;99.90;;;;;;5054789;28;20052;-42
2023/05/02 07:22:37;;;;;;;5.30;1.33;;;8.20;99.90;;;;;;5021869;28;20049;-41
2023/05/02 07:25:03;;;;;;;3.47;1.10;;;8.20;99.90;;;;;;5054466;28;20060;-41
2023/05/02 07:27:29;;;;;;;4.38;1.10;;;8.30;99.90;;;;;;5055891;28;20041;-42
2023/05/02 07:29:55;;;;;;;2.70;0.83;;;8.20;99.90;;;;;;5038778;28;20094;-42
2023/05/02 07:32:21;;;;;;;5.53;0.87;;;8.30;99.90;;;;;;5037466;28;20114;-42
2023/05/02 07:34:47;;;;;;;3.80;1.10;;;8.30;99.90;;;;;;5038262;28;20044;-41
2023/05/02 07:37:13;;;;;;;4.97;1.38;;;8.30;99.90;;;;;;5055419;28;20060;-41
2023/05/02 07:39:38;;;;;;;5.87;1.10;;;8.30;99.90;;;;;;5054566;28;20057;-42
2023/05/02 07:42:05;;;;;;;3.10;0.90;;;8.40;99.90;;;;;;5055674;28;20049;-43
2023/05/02 07:44:34;;;;;;;4.60;0.85;;;8.50;99.90;;;;;;5054377;28;20049;-41
2023/05/02 07:47:00;;;;;;;2.50;0.80;;;8.50;99.90;;;;;;5054487;28;20175;-41
2023/05/02 07:49:26;;;;;;;3.17;0.70;;;8.50;99.90;;;;;;5054585;28;20128;-41
2023/05/02 07:51:51;;;;;;;2.10;0.67;;;8.60;99.90;;;;;;5055505;28;20392;-41
2023/05/02 07:54:19;;;;;;;6.23;1.13;;;8.60;99.90;;;;;;5055564;28;20045;-41
2023/05/02 07:56:45;;;;;;;1.70;0.50;;;8.70;99.90;;;;;;5055326;28;20056;-42
2023/05/02 07:59:11;;;;;;;3.97;0.60;;;8.80;99.90;;;;;;5037756;28;20401;-41
2023/05/02 08:01:37;;;;;;;4.00;0.57;;;8.80;99.90;;;;;;5055285;28;20056;-41
2023/05/02 08:04:03;;;;;;;2.30;0.60;;;8.80;99.90;;;;;;5054995;28;20047;-41
2023/05/02 08:06:29;;;;;;;3.03;0.70;;;8.90;99.90;;;;;;5054968;28;20049;-41
2023/05/02 08:08:55;;;;;;;1.50;0.60;;;8.90;99.90;;;;;;5054129;28;20049;-41
2023/05/02 08:11:24;;;;;;;4.13;0.65;;;9.00;99.90;;;;;;5054085;28;20095;-42
2023/05/02 08:13:50;;;;;;;2.03;0.50;;;9.00;99.90;;;;;;5037501;28;20098;-42
2023/05/02 08:16:16;;;;;;;2.10;0.60;;;9.10;99.90;;;;;;5053801;28;20099;-42
2023/05/02 08:18:41;;;;;;;3.90;0.63;;;9.10;99.90;;;;;;5037273;28;20080;-41
2023/05/02 08:21:07;;;;;;;2.40;0.57;;;9.10;99.90;;;;;;5053602;28;20131;-43
2023/05/02 08:23:33;;;;;;;2.33;0.50;;;9.20;99.90;;;;;;5020781;28;20103;-41
2023/05/02 08:25:59;;;;;;;2.33;0.50;;;9.10;99.90;;;;;;5053395;28;20579;-41
2023/05/02 08:28:25;;;;;;;2.17;0.60;;;9.10;99.90;;;;;;5054575;28;20055;-41
2023/05/02 08:30:50;;;;;;;1.60;0.57;;;9.10;99.90;;;;;;5053583;28;20045;-41
2023/05/02 08:33:16;;;;;;;1.80;0.60;;;9.10;99.90;;;;;;5053578;28;20525;-41
2023/05/02 08:35:42;;;;;;;1.57;0.50;;;9.10;99.90;;;;;;5053539;28;20055;-41
2023/05/02 08:38:07;;;;;;;2.17;0.50;;;9.20;99.90;;;;;;5054939;28;20051;-41
2023/05/02 08:40:35;;;;;;;1.70;0.60;;;9.20;99.90;;;;;;5054241;28;20057;-41
2023/05/02 08:43:02;;;;;;;3.47;0.70;;;9.20;99.90;;;;;;5054221;28;20060;-41
2023/05/02 08:45:40;;;;;;;2.08;0.50;;;9.20;99.90;;;;;;5053492;28;20041;-41
2023/05/02 08:48:09;;;;;;;1.38;0.30;;;9.40;99.90;;;;;;5054156;28;20060;-42
2023/05/02 08:50:44;;;;;;;1.92;0.50;;;9.50;99.90;;;;;;5053022;28;20106;-41
2023/05/02 08:53:11;;;;;;;3.03;0.52;;;9.50;99.90;;;;;;5054143;28;20045;-41
2023/05/02 08:55:40;;;;;;;;;;;9.50;99.90;;;;;;5054631;28;20045;-41
2023/05/02 08:58:07;;;;;;;2.80;0.50;;;9.50;99.90;;;;;;5069829;28;19931;-41
2023/05/02 09:00:38;;;;;;;1.48;0.50;;;9.40;99.90;;;;;;5054546;28;20059;-42
2023/05/02 09:03:27;;;;;;;1.25;0.55;;;9.40;99.90;;;;;;5054589;28;20118;-41
2023/05/02 09:06:02;;;;;;;1.50;0.43;;;9.40;99.90;;;;;;5054035;28;20037;-41
2023/05/02 09:08:28;;;;;;;1.23;0.50;;;9.50;99.90;;;;;;5053997;28;20132;-42
2023/05/02 09:10:54;;;;;;;2.40;0.40;;;9.70;99.90;;;;;;5052891;28;20087;-42
2023/05/02 09:13:42;;;;;;;2.23;0.40;;;9.90;99.90;;;;;;5053664;28;20041;-41
2023/05/02 09:16:16;;;;;;;2.28;0.52;;;9.90;99.90;;;;;;5052999;28;20348;-41
2023/05/02 09:18:44;;;;;;;2.78;0.55;;;9.80;99.90;;;;;;5053139;28;20048;-42
2023/05/02 09:21:13;;;;;;;1.67;0.40;;;9.70;99.90;;;;;;5053742;28;20052;-41
2023/05/02 09:23:54;;;;;;;1.23;0.32;;;9.60;99.90;;;;;;5053578;28;20450;-42
2023/05/02 09:26:42;;;;;;;1.50;0.60;;;9.50;99.90;;;;;;5052549;28;20052;-41
2023/05/02 09:29:08;;;;;;;2.63;0.50;;;9.50;99.90;;;;;;5053643;28;20049;-41
2023/05/02 09:31:37;;;;;;;1.70;0.63;;;9.40;99.90;;;;;;5053567;28;20056;-41
2023/05/02 09:34:12;;;;;;;0.90;0.40;;;9.50;99.90;;;;;;5053639;28;20045;-41
2023/05/02 09:36:43;;;;;;;1.17;0.50;;;9.50;99.90;;;;;;5052632;28;20069;-42
2023/05/02 09:39:21;;;;;;;3.45;0.50;;;9.60;99.90;;;;;;5053582;28;20071;-41
2023/05/02 09:41:47;;;;;;;1.30;0.40;;;9.70;99.90;;;;;;5053310;28;20049;-41
2023/05/02 09:44:19;;;;;;;4.88;0.50;;;9.80;99.90;;;;;;5052446;28;20384;-41
2023/05/02 09:46:50;;;;;;;2.15;0.50;;;9.80;99.90;;;;;;5052405;28;20049;-42
2023/05/02 09:49:19;;;;;;;2.40;0.50;;;9.90;99.90;;;;;;5053783;28;20052;-42
2023/05/02 09:51:48;;;;;;;2.67;0.55;;;9.90;99.90;;;;;;5052379;28;20124;-41
2023/05/02 09:54:36;;;;;;;2.25;0.40;;;9.80;99.90;;;;;;5053732;28;20037;-41
2023/05/02 09:57:02;;;;;;;2.83;0.50;;;9.60;99.90;;;;;;5057224;28;20098;-41
2023/05/02 09:59:28;;;;;;;2.22;0.55;;;9.50;99.90;;;;;;5057775;28;20060;-42
2023/05/02 10:01:56;;;;;;;4.80;0.63;;;9.50;99.90;;;;;;5057480;28;20071;-41
2023/05/02 10:04:22;;;;;;;1.50;0.50;;;9.50;99.90;;;;;;5057333;28;20158;-41
2023/05/02 10:06:50;;;;;;;1.40;0.50;;;9.50;99.90;;;;;;5057531;28;20520;-41
2023/05/02 10:09:18;;;;;;;1.40;0.40;;;9.60;99.90;;;;;;5056257;28;20296;-41
2023/05/02 10:11:44;;;;;;;1.92;0.50;;;9.60;99.90;;;;;;5057059;28;20041;-41
2023/05/02 10:14:11;;;;;;;1.38;0.52;;;9.60;99.90;;;;;;5057220;28;20044;-41
2023/05/02 10:17:00;;;;;;;3.67;0.60;;;9.60;99.90;;;;;;5057212;28;20052;-41
2023/05/02 10:19:31;;;;;;;2.97;0.70;;;9.60;99.90;;;;;;5056110;28;20496;-41
2023/05/02 10:21:59;;;;;;;2.92;0.60;;;9.60;99.90;;;;;;5056848;28;20106;-41
2023/05/02 10:24:25;;;;;;;2.63;0.50;;;9.70;99.90;;;;;;5056918;28;20488;-41
2023/05/02 10:26:52;;;;;;;2.42;0.50;;;9.70;99.90;;;;;;5056060;28;20095;-42
2023/05/02 10:29:18;;;;;;;3.05;1.00;;;9.80;99.90;;;;;;5039614;28;20044;-47
2023/05/02 10:31:45;;;;;;;2.75;0.75;;;9.90;99.90;;;;;;5056953;28;20091;-45
2023/05/02 10:34:12;;;;;;;3.28;0.45;;;10.00;99.90;;;;;;5057013;28;20060;-43
2023/05/02 10:36:38;;;;;;;1.00;0.40;;;10.40;99.90;;;;;;5055390;28;20403;-43
2023/05/02 10:39:05;;;;;;;1.63;0.43;;;10.90;99.90;;;;;;5056819;28;20060;-43
2023/05/02 10:41:33;;;;;;;2.10;0.60;;;11.50;99.90;;;;;;5056898;28;20068;-43
2023/05/02 10:43:59;;;;;;;3.85;0.55;;;11.90;99.90;;;;;;5056624;28;20589;-43
2023/05/02 10:46:41;;;;;;;1.58;0.60;;;11.80;99.90;;;;;;5056703;28;20055;-44
2023/05/02 10:49:12;;;;;;;2.92;0.70;;;11.60;99.90;;;;;;5056440;28;20396;-43
2023/05/02 10:51:41;;;;;;;1.52;0.40;;;11.30;99.90;;;;;;5056752;28;20198;-43
2023/05/02 10:54:19;;;;;;;0.73;0.30;;;11.20;99.90;;;;;;5056492;28;20045;-43
2023/05/02 10:57:03;;;;;;;;;;;11.10;99.90;;;;;;5056872;28;20052;-44
2023/05/02 10:59:39;;;;;;;1.42;0.60;;;10.90;99.90;;;;;;5056118;28;19921;-44
2023/05/02 11:02:24;;;;;;;2.22;0.52;;;10.70;99.90;;;;;;5056365;28;20052;-43
2023/05/02 11:05:04;;;;;;;1.77;0.50;;;10.70;99.90;;;;;;5056166;28;20492;-43
2023/05/02 11:07:31;;;;;;;1.85;0.38;;;10.80;99.90;;;;;;5055285;28;20052;-44
2023/05/02 11:10:19;;;;;;;3.88;2.65;;;10.90;99.90;;;;;;5055868;28;20053;-43
2023/05/02 11:12:49;;;;;;;3.08;0.50;;;10.80;99.90;;;;;;5056063;28;20128;-43
2023/05/02 11:15:27;;;;;;;1.05;0.35;;;10.80;99.90;;;;;;5056194;28;20041;-43
2023/05/02 11:18:07;;;;;;;2.00;0.45;;;10.90;99.90;;;;;;5056004;28;20045;-43
2023/05/02 11:20:34;;;;;;;1.05;0.30;;;11.00;99.90;;;;;;5055824;28;20036;-42
2023/05/02 11:23:20;;;;;;;2.08;0.55;;;11.00;99.90;;;;;;5055912;28;20475;-43
2023/05/02 11:25:48;;;;;;;1.00;0.50;;;11.00;99.90;;;;;;5056167;28;20049;-42
2023/05/02 11:28:35;;;;;;;1.42;0.35;;;11.00;99.90;;;;;;5055841;28;20052;-43
2023/05/02 11:31:02;;;;;;;0.73;0.30;;;11.40;99.90;;;;;;5055783;28;20439;-43
2023/05/02 11:33:28;;;;;;;1.60;0.40;;;11.80;99.90;;;;;;5055781;28;20041;-42
2023/05/02 11:35:55;;;;;;;1.13;0.40;;;11.80;99.90;;;;;;5055573;28;20114;-42
2023/05/02 11:38:21;;;;;;;2.55;0.65;;;11.80;99.90;;;;;;5056051;28;20045;-43
2023/05/02 11:40:55;;;;;;;1.25;0.32;;;11.70;99.90;;;;;;5055533;28;20091;-43
2023/05/02 11:43:23;;;;;;;1.27;0.30;;;12.00;99.90;;;;;;5055385;28;20056;-44
2023/05/02 11:45:50;;;;;;;1.48;0.20;;;12.40;99.90;;;;;;5055715;28;20076;-44
2023/05/02 11:48:18;;;;;;;2.15;0.60;;;12.60;99.90;;;;;;5054505;28;20102;-43
2023/05/02 11:50:55;;;;;;;3.45;0.30;;;12.80;99.90;;;;;;5055455;28;20044;-43
2023/05/02 11:53:28;;;;;;;2.72;0.47;;;13.00;99.90;;;;;;5055359;28;20049;-43
2023/05/02 11:55:56;;;;;;;0.30;0.10;;;12.90;99.90;;;;;;5054217;28;20049;-42
2023/05/02 11:58:25;;;;;;;1.88;0.30;;;12.80;99.90;;;;;;5055376;28;20404;-44
2023/05/02 12:00:52;;;;;;;3.47;0.20;;;12.60;99.90;;;;;;5055316;28;20140;-43
2023/05/02 12:03:22;;;;;;;0.77;0.10;;;12.60;99.90;;;;;;5055196;28;20081;-43
2023/05/02 12:05:48;;;;;;;2.30;0.60;;;12.80;99.90;;;;;;5055053;28;20052;-44
2023/05/02 12:08:28;;;;;;;2.92;0.40;;;12.70;99.90;;;;;;5055034;28;20484;-45
2023/05/02 12:10:55;;;;;;;2.53;0.50;;;12.80;99.90;;;;;;5055623;28;20048;-44
2023/05/02 12:13:24;;;;;;;0.45;0.30;;;12.80;99.90;;;;;;5054955;28;20119;-43
2023/05/02 12:15:51;;;;;;;0.40;0.20;;;12.90;99.90;;;;;;5054825;28;20037;-44
2023/05/02 12:18:18;;;;;;;0.40;0.20;;;13.10;99.90;;;;;;5054742;28;20073;-43
2023/05/02 12:20:45;;;;;;;1.50;0.38;;;13.40;99.90;;;;;;5054539;28;20111;-43
2023/05/02 12:23:11;;;;;;;0.90;0.20;;;13.50;99.90;;;;;;5054484;28;20064;-43
2023/05/02 12:25:41;;;;;;;1.52;0.20;;;13.50;99.90;;;;;;5054788;28;20102;-44
2023/05/02 12:28:08;;;;;;;1.40;0.28;;;13.70;99.90;;;;;;5054714;28;20049;-43
2023/05/02 12:30:34;;;;;;;0.20;0.10;;;13.80;99.90;;;;;;5054380;28;20056;-43
2023/05/02 12:33:01;;;;;;;;;;;13.60;99.90;;;;;;5054948;28;20408;-43
2023/05/02 12:35:27;;;;;;;0.30;0.20;;;13.70;99.90;;;;;;5053343;28;20018;-43
2023/05/02 12:37:54;;;;;;;1.40;0.22;;;13.80;99.90;;;;;;5054285;28;20049;-44
2023/05/02 12:40:21;;;;;;;2.25;0.30;;;13.90;99.90;;;;;;5054468;28;20523;-44
2023/05/02 12:43:05;;;;;;;1.58;0.30;;;14.10;99.90;;;;;;5054451;28;20063;-44
2023/05/02 12:45:34;;;;;;;1.58;0.30;;;14.00;99.90;;;;;;5054082;28;20106;-44
2023/05/02 12:48:21;;;;;;;0.77;0.40;;;13.80;99.90;;;;;;5052974;28;20404;-43
2023/05/02 12:50:47;;;;;;;1.90;0.30;;;13.60;99.90;;;;;;5053723;28;20115;-44
2023/05/02 12:53:13;;;;;;;1.60;0.30;;;13.40;99.90;;;;;;5054117;28;20053;-43
2023/05/02 12:55:39;;;;;;;1.60;0.30;;;13.10;99.90;;;;;;5054166;28;20045;-43
2023/05/02 12:58:12;;;;;;;2.03;0.50;;;12.80;99.90;;;;;;5053971;28;20051;-44
2023/05/02 13:00:40;;;;;;;1.65;0.20;;;12.50;99.90;;;;;;5053686;28;20061;-44
2023/05/02 13:03:07;;;;;;;0.52;0.38;;;12.20;99.90;;;;;;5054018;28;20111;-44
2023/05/02 13:05:33;;;;;;;;;;;12.00;99.90;;;;;;5054382;28;20045;-43
2023/05/02 13:07:58;;;;;;;1.77;0.20;;;11.90;99.90;;;;;;5054066;28;20287;-43
2023/05/02 13:10:25;;;;;;;0.77;0.30;;;12.00;99.90;;;;;;5053937;28;20128;-43
2023/05/02 13:12:51;;;;;;;1.60;0.40;;;12.10;99.90;;;;;;5053983;28;20290;-43